createdAt,value
2017-10-06T00:00:40.991Z,95738
2017-10-06T00:03:11.340Z,95745
2017-10-06T00:05:46.165Z,95731
2017-10-06T00:08:14.872Z,95733
2017-10-06T00:10:44.324Z,95733
2017-10-06T00:13:13.012Z,95736
2017-10-06T00:15:41.721Z,95733
2017-10-06T00:18:11.224Z,95740
2017-10-06T00:20:41.560Z,95732
2017-10-06T00:23:16.488Z,95743
2017-10-06T00:25:46.220Z,95745
2017-10-06T00:28:15.684Z,95742
2017-10-06T00:30:44.377Z,95749
2017-10-06T00:33:13.080Z,95748
2017-10-06T00:35:48.070Z,95746
2017-10-06T00:38:16.769Z,95760
2017-10-06T00:40:45.462Z,95765
2017-10-06T00:43:14.176Z,95763
2017-10-06T00:45:42.870Z,95763
2017-10-06T00:48:12.329Z,95762
2017-10-06T00:50:41.115Z,95762
2017-10-06T00:53:09.784Z,95770
2017-10-06T00:55:38.481Z,95764
2017-10-06T00:58:07.184Z,95767
2017-10-06T01:00:35.892Z,95773
2017-10-06T01:03:04.587Z,95773
2017-10-06T01:05:33.285Z,95775
2017-10-06T01:08:02.752Z,95772
2017-10-06T01:10:31.502Z,95775
2017-10-06T01:13:01.205Z,95778
2017-10-06T01:15:30.649Z,95776
2017-10-06T01:17:59.364Z,95785
2017-10-06T01:20:28.060Z,95789
2017-10-06T01:22:56.748Z,95780
2017-10-06T01:25:25.440Z,95781
2017-10-06T01:27:57.142Z,95790
2017-10-06T01:30:25.839Z,95788
2017-10-06T01:32:54.528Z,95789
2017-10-06T01:35:24.108Z,95786
2017-10-06T01:37:52.800Z,95788
2017-10-06T01:40:21.493Z,95786
2017-10-06T01:42:50.199Z,95789
2017-10-06T01:45:18.888Z,95796
2017-10-06T01:47:47.585Z,95793
2017-10-06T01:50:17.110Z,95791
2017-10-06T01:52:45.793Z,95795
2017-10-06T01:55:15.304Z,95805
2017-10-06T01:57:46.035Z,95801
2017-10-06T02:00:15.593Z,95812
2017-10-06T02:02:44.276Z,95806
2017-10-06T02:05:13.956Z,95812
2017-10-06T02:07:42.652Z,95813
2017-10-06T02:10:11.345Z,95815
2017-10-06T02:12:41.676Z,95811
2017-10-06T02:15:13.412Z,95803
2017-10-06T02:17:42.104Z,95803
2017-10-06T02:20:10.809Z,95802
2017-10-06T02:22:39.496Z,95804
2017-10-06T02:25:08.217Z,95808
2017-10-06T02:27:37.680Z,95804
2017-10-06T02:30:06.374Z,95805
2017-10-06T02:32:36.700Z,95806
2017-10-06T02:35:05.384Z,95803
2017-10-06T02:37:35.068Z,95801
2017-10-06T02:40:03.774Z,95804
2017-10-06T02:42:32.484Z,95800
2017-10-06T02:45:01.176Z,95797
2017-10-06T02:47:31.887Z,95803
2017-10-06T02:50:00.580Z,95794
2017-10-06T02:52:29.270Z,95790
2017-10-06T02:54:57.968Z,95783
2017-10-06T02:57:29.679Z,95785
2017-10-06T02:59:58.381Z,95785
2017-10-06T03:02:27.068Z,95780
2017-10-06T03:04:55.940Z,95786
2017-10-06T03:07:24.628Z,95789
2017-10-06T03:09:53.402Z,95782
2017-10-06T03:12:22.373Z,95784
2017-10-06T03:14:51.818Z,95783
2017-10-06T03:17:20.533Z,95779
2017-10-06T03:19:56.208Z,95796
2017-10-06T03:22:24.927Z,95792
2017-10-06T03:24:53.624Z,95793
2017-10-06T03:27:22.438Z,95787
2017-10-06T03:29:51.916Z,95797
2017-10-06T03:32:20.664Z,95794
2017-10-06T03:34:49.390Z,95780
2017-10-06T03:37:24.284Z,95791
2017-10-06T03:39:52.992Z,95791
2017-10-06T03:42:21.692Z,95792
2017-10-06T03:44:56.644Z,95794
2017-10-06T03:47:25.360Z,95793
2017-10-06T03:49:54.215Z,95788
2017-10-06T03:52:23.912Z,95797
2017-10-06T03:54:52.607Z,95794
2017-10-06T03:57:21.311Z,95797
2017-10-06T03:59:56.344Z,95808
2017-10-06T04:02:25.918Z,95795
2017-10-06T04:05:00.776Z,95797
2017-10-06T04:07:29.473Z,95804
2017-10-06T04:09:58.945Z,95809
2017-10-06T04:12:27.645Z,95813
2017-10-06T04:14:59.356Z,95813
2017-10-06T04:17:28.061Z,95823
2017-10-06T04:19:56.747Z,95819
2017-10-06T04:22:25.460Z,95821
2017-10-06T04:24:54.156Z,95811
2017-10-06T04:27:23.627Z,95816
2017-10-06T04:29:52.316Z,95816
2017-10-06T04:32:21.033Z,95815
2017-10-06T04:34:50.502Z,95824
2017-10-06T04:37:19.325Z,95822
2017-10-06T04:39:49.788Z,95821
2017-10-06T04:42:24.668Z,95817
2017-10-06T04:44:53.371Z,95817
2017-10-06T04:47:22.170Z,95808
2017-10-06T04:49:51.731Z,95807
2017-10-06T04:52:23.800Z,95803
2017-10-06T04:54:58.771Z,95795
2017-10-06T04:57:28.382Z,95806
2017-10-06T04:59:57.847Z,95815
2017-10-06T05:02:26.545Z,95805
2017-10-06T05:04:55.247Z,95814
2017-10-06T05:07:30.241Z,95809
2017-10-06T05:09:59.758Z,95814
2017-10-06T05:12:29.405Z,95821
2017-10-06T05:14:58.117Z,95820
2017-10-06T05:17:27.712Z,95819
2017-10-06T05:19:56.458Z,95816
2017-10-06T05:22:25.229Z,95814
2017-10-06T05:24:58.946Z,95818
2017-10-06T05:27:27.661Z,95812
2017-10-06T05:30:02.475Z,95824
2017-10-06T05:32:31.946Z,95822
2017-10-06T05:35:06.755Z,95820
2017-10-06T05:37:36.380Z,95836
2017-10-06T05:40:05.076Z,95831
2017-10-06T05:42:33.773Z,95829
2017-10-06T05:45:02.472Z,95832
2017-10-06T05:47:31.928Z,95831
2017-10-06T05:50:06.896Z,95832
2017-10-06T05:52:35.591Z,95831
2017-10-06T05:55:04.288Z,95831
2017-10-06T05:57:33.748Z,95833
2017-10-06T06:00:08.716Z,95832
2017-10-06T06:02:43.740Z,95843
2017-10-06T06:05:12.444Z,95834
2017-10-06T06:07:41.163Z,95829
2017-10-06T06:10:09.848Z,95839
2017-10-06T06:12:44.811Z,95839
2017-10-06T06:15:13.524Z,95836
2017-10-06T06:17:48.519Z,95843
2017-10-06T06:20:17.233Z,95853
2017-10-06T06:22:45.956Z,95847
2017-10-06T06:25:14.637Z,95849
2017-10-06T06:27:43.348Z,95853
2017-10-06T06:30:12.028Z,95861
2017-10-06T06:32:41.695Z,95859
2017-10-06T06:35:11.193Z,95859
2017-10-06T06:37:39.890Z,95857
2017-10-06T06:40:14.877Z,95861
2017-10-06T06:42:43.610Z,95857
2017-10-06T06:45:12.297Z,95866
2017-10-06T06:47:47.180Z,95866
2017-10-06T06:50:15.873Z,95866
2017-10-06T06:52:45.419Z,95864
2017-10-06T06:55:18.148Z,95872
2017-10-06T06:57:53.100Z,95865
2017-10-06T07:00:21.797Z,95878
2017-10-06T07:02:50.528Z,95868
2017-10-06T07:05:19.228Z,95864
2017-10-06T07:07:54.221Z,95866
2017-10-06T07:10:29.152Z,95867
2017-10-06T07:13:04.087Z,95870
2017-10-06T07:15:33.554Z,95878
2017-10-06T07:18:02.254Z,95871
2017-10-06T07:20:30.976Z,95871
2017-10-06T07:23:05.786Z,95866
2017-10-06T07:25:34.503Z,95866
2017-10-06T07:28:03.184Z,95866
2017-10-06T07:30:32.732Z,95874
2017-10-06T07:33:07.693Z,95877
2017-10-06T07:35:36.379Z,95883
2017-10-06T07:38:05.076Z,95873
2017-10-06T07:40:34.540Z,95875
2017-10-06T07:43:03.244Z,95885
2017-10-06T07:45:31.928Z,95890
2017-10-06T07:48:00.616Z,95887
2017-10-06T07:50:35.563Z,95883
2017-10-06T07:53:04.248Z,95898
2017-10-06T07:55:33.730Z,95890
2017-10-06T07:58:02.419Z,95892
2017-10-06T08:00:31.113Z,95889
2017-10-06T08:03:06.027Z,95890
2017-10-06T08:05:40.869Z,95897
2017-10-06T08:08:09.568Z,95894
2017-10-06T08:10:44.548Z,95906
2017-10-06T08:13:13.256Z,95903
2017-10-06T08:15:41.937Z,95905
2017-10-06T08:18:16.888Z,95907
2017-10-06T08:20:46.376Z,95896
2017-10-06T08:23:21.345Z,95902
2017-10-06T08:25:50.804Z,95897
2017-10-06T08:28:19.559Z,95903
2017-10-06T08:30:48.256Z,95902
2017-10-06T08:33:16.952Z,95902
2017-10-06T08:35:45.655Z,95905
2017-10-06T08:38:20.624Z,95909
2017-10-06T08:40:50.104Z,95901
2017-10-06T08:43:18.796Z,95898
2017-10-06T08:45:53.642Z,95896
2017-10-06T08:48:22.327Z,95895
2017-10-06T08:50:51.780Z,95894
2017-10-06T08:53:21.320Z,95891
2017-10-06T08:55:50.004Z,95901
2017-10-06T08:58:18.699Z,95901
2017-10-06T09:00:47.392Z,95905
2017-10-06T09:03:16.092Z,95906
2017-10-06T09:05:45.553Z,95901
2017-10-06T09:08:14.306Z,95906
2017-10-06T09:10:49.097Z,95910
2017-10-06T09:13:24.113Z,95902
2017-10-06T09:15:52.807Z,95904
2017-10-06T09:18:21.544Z,95905
2017-10-06T09:20:50.231Z,95911
2017-10-06T09:23:18.919Z,95909
2017-10-06T09:25:53.701Z,95912
2017-10-06T09:28:22.387Z,95910
2017-10-06T09:30:51.956Z,95903
2017-10-06T09:33:21.498Z,95915
2017-10-06T09:35:56.320Z,95913
2017-10-06T09:38:31.260Z,95915
2017-10-06T09:41:06.107Z,95912
2017-10-06T09:43:40.925Z,95908
2017-10-06T09:46:16.541Z,95902
2017-10-06T09:48:45.224Z,95910
2017-10-06T09:51:20.056Z,95895
2017-10-06T09:53:48.744Z,95905
2017-10-06T09:56:17.428Z,95907
2017-10-06T09:58:46.184Z,95914
2017-10-06T10:01:14.873Z,95914
2017-10-06T10:03:43.579Z,95915
2017-10-06T10:06:12.264Z,95914
2017-10-06T10:08:47.181Z,95915
2017-10-06T10:11:22.123Z,95915
2017-10-06T10:13:57.092Z,95911
2017-10-06T10:16:31.891Z,95905
2017-10-06T10:19:06.780Z,95910
2017-10-06T10:21:35.489Z,95919
2017-10-06T10:24:10.448Z,95919
2017-10-06T10:26:45.408Z,95923
2017-10-06T10:29:14.123Z,95917
2017-10-06T10:31:42.807Z,95917
2017-10-06T10:34:11.502Z,95916
2017-10-06T10:36:41.858Z,95917
2017-10-06T10:39:12.549Z,95917
2017-10-06T10:41:41.249Z,95916
2017-10-06T10:44:09.937Z,95903
2017-10-06T10:46:38.656Z,95909
2017-10-06T10:49:07.323Z,95904
2017-10-06T10:51:36.012Z,95906
2017-10-06T10:54:10.841Z,95909
2017-10-06T10:56:45.687Z,95916
2017-10-06T10:59:17.393Z,95920
2017-10-06T11:01:52.369Z,95915
2017-10-06T11:04:21.054Z,95905
2017-10-06T11:06:51.365Z,95903
2017-10-06T11:09:20.057Z,95909
2017-10-06T11:11:54.964Z,95907
2017-10-06T11:14:29.899Z,95911
2017-10-06T11:16:59.438Z,95891
2017-10-06T11:19:34.452Z,95890
2017-10-06T11:22:09.402Z,95891
2017-10-06T11:24:38.110Z,95887
2017-10-06T11:27:06.792Z,95889
2017-10-06T11:29:35.491Z,95880
2017-10-06T11:32:04.960Z,95882
2017-10-06T11:34:39.908Z,95888
2017-10-06T11:37:08.653Z,95888
2017-10-06T11:39:37.356Z,95892
2017-10-06T11:42:06.049Z,95894
2017-10-06T11:44:41.701Z,95892
2017-10-06T11:47:10.421Z,95898
2017-10-06T11:49:45.237Z,95913
2017-10-06T11:52:20.885Z,95939
2017-10-06T11:54:55.877Z,95953
2017-10-06T11:57:31.467Z,95965
2017-10-06T12:00:06.465Z,95978
2017-10-06T12:02:36.012Z,95981
2017-10-06T12:05:10.904Z,95977
2017-10-06T12:07:39.622Z,95961
2017-10-06T12:10:14.584Z,95966
2017-10-06T12:12:43.301Z,95971
2017-10-06T12:15:18.223Z,95974
2017-10-06T12:17:46.944Z,95960
2017-10-06T12:20:15.628Z,95964
2017-10-06T12:22:44.313Z,95955
2017-10-06T12:25:13.825Z,95957
2017-10-06T12:27:42.513Z,95970
2017-10-06T12:30:11.216Z,95972
2017-10-06T12:32:40.673Z,95973
2017-10-06T12:35:15.652Z,95971
2017-10-06T12:37:45.114Z,95991
2017-10-06T12:40:20.067Z,95990
2017-10-06T12:42:54.979Z,95992
2017-10-06T12:45:29.954Z,95989
2017-10-06T12:47:59.408Z,95979
2017-10-06T12:50:30.993Z,95974
2017-10-06T12:53:05.802Z,95985
2017-10-06T12:55:34.530Z,95976
2017-10-06T12:58:03.988Z,95967
2017-10-06T13:00:32.977Z,95960
2017-10-06T13:03:01.673Z,95963
2017-10-06T13:05:36.560Z,95958
2017-10-06T13:08:05.360Z,95957
2017-10-06T13:10:40.177Z,95970
2017-10-06T13:13:08.872Z,95965
2017-10-06T13:15:43.756Z,95954
2017-10-06T13:18:12.478Z,95955
2017-10-06T13:20:42.193Z,95951
2017-10-06T13:23:11.283Z,95947
2017-10-06T13:25:39.971Z,95944
2017-10-06T13:28:08.951Z,95942
2017-10-06T13:30:38.592Z,95955
2017-10-06T13:33:09.134Z,95948
2017-10-06T13:35:44.032Z,95951
2017-10-06T13:38:19.211Z,95948
2017-10-06T13:40:47.971Z,95949
2017-10-06T13:43:19.828Z,95951
2017-10-06T13:45:53.729Z,95951
2017-10-06T13:48:28.577Z,95961
2017-10-06T13:51:05.378Z,95958
2017-10-06T13:53:34.869Z,95971
2017-10-06T13:56:09.652Z,95962
2017-10-06T13:58:39.285Z,95965
2017-10-06T14:01:07.970Z,95962
2017-10-06T14:03:36.654Z,95957
2017-10-06T14:06:11.661Z,95960
2017-10-06T14:08:40.335Z,95963
2017-10-06T14:11:09.127Z,95970
2017-10-06T14:13:44.156Z,95962
2017-10-06T14:16:12.945Z,95979
2017-10-06T14:18:47.928Z,95966
2017-10-06T14:21:16.771Z,95971
2017-10-06T14:23:52.396Z,95972
2017-10-06T14:26:21.562Z,95975
2017-10-06T14:28:56.210Z,95973
2017-10-06T14:31:40.560Z,95979
2017-10-06T14:34:16.627Z,95976
2017-10-06T14:36:54.272Z,95985
2017-10-06T14:39:23.087Z,95973
2017-10-06T14:42:01.717Z,95970
2017-10-06T14:44:30.861Z,95960
2017-10-06T14:47:00.218Z,95961
2017-10-06T14:49:29.092Z,95965
2017-10-06T14:51:59.201Z,95953
2017-10-06T14:54:29.256Z,95953
2017-10-06T14:56:58.392Z,95952
2017-10-06T14:59:29.331Z,95958
2017-10-06T15:02:05.189Z,95949
2017-10-06T15:04:36.654Z,95952
2017-10-06T15:07:05.839Z,95959
2017-10-06T15:09:37.490Z,95961
2017-10-06T15:12:06.494Z,95972
2017-10-06T15:14:41.979Z,95959
2017-10-06T15:17:12.180Z,95961
2017-10-06T15:19:41.475Z,95971
2017-10-06T15:22:10.705Z,95972
2017-10-06T15:24:40.009Z,95999
2017-10-06T15:27:09.959Z,95975
2017-10-06T15:29:39.480Z,95977
2017-10-06T15:32:08.172Z,95978
2017-10-06T15:34:36.996Z,95981
2017-10-06T15:37:06.476Z,95981
2017-10-06T15:39:37.044Z,95981
2017-10-06T15:42:07.622Z,95979
2017-10-06T15:44:36.301Z,95983
2017-10-06T15:47:04.993Z,95988
2017-10-06T15:49:40.559Z,95987
2017-10-06T15:52:09.298Z,95991
2017-10-06T15:54:37.997Z,95990
2017-10-06T15:57:06.689Z,95997
2017-10-06T15:59:41.676Z,96008
2017-10-06T16:02:10.413Z,96007
2017-10-06T16:04:45.372Z,96016
2017-10-06T16:07:20.329Z,96026
2017-10-06T16:09:49.052Z,96028
2017-10-06T16:12:17.853Z,96031
2017-10-06T16:14:46.553Z,96032
2017-10-06T16:17:16.072Z,96023
2017-10-06T16:19:44.776Z,96041
2017-10-06T16:22:19.700Z,96039
2017-10-06T16:24:49.211Z,96048
2017-10-06T16:27:17.981Z,96054
2017-10-06T16:29:46.725Z,96039
2017-10-06T16:32:21.776Z,96056
2017-10-06T16:34:57.506Z,96060
2017-10-06T16:37:26.240Z,96073
2017-10-06T16:39:55.696Z,96061
2017-10-06T16:42:24.475Z,96068
2017-10-06T16:44:53.180Z,96071
2017-10-06T16:47:21.873Z,96078
2017-10-06T16:49:57.612Z,96084
2017-10-06T16:52:26.303Z,96085
2017-10-06T16:54:55.016Z,96105
2017-10-06T16:57:23.711Z,96093
2017-10-06T16:59:58.729Z,96091
2017-10-06T17:02:27.424Z,96102
2017-10-06T17:04:56.992Z,96110
2017-10-06T17:07:26.688Z,96114
2017-10-06T17:10:02.493Z,96107
2017-10-06T17:12:31.977Z,96106
2017-10-06T17:15:06.797Z,96118
2017-10-06T17:17:35.489Z,96127
2017-10-06T17:20:10.525Z,96118
2017-10-06T17:22:39.218Z,96127
2017-10-06T17:25:14.258Z,96116
2017-10-06T17:27:49.084Z,96129
2017-10-06T17:30:17.808Z,96126
2017-10-06T17:32:52.817Z,96136
2017-10-06T17:35:21.544Z,96135
2017-10-06T17:37:50.588Z,96138
2017-10-06T17:40:25.608Z,96141
2017-10-06T17:43:00.580Z,96142
2017-10-06T17:45:30.073Z,96146
2017-10-06T17:48:04.860Z,96151
2017-10-06T17:50:33.587Z,96154
2017-10-06T17:53:03.061Z,96159
2017-10-06T17:55:31.792Z,96172
2017-10-06T17:58:06.737Z,96169
2017-10-06T18:00:35.426Z,96170
2017-10-06T18:03:04.153Z,96177
2017-10-06T18:05:41.089Z,96177
2017-10-06T18:08:09.817Z,96178
2017-10-06T18:10:38.610Z,96179
2017-10-06T18:13:13.449Z,96181
2017-10-06T18:15:49.072Z,96184
2017-10-06T18:18:17.789Z,96194
2017-10-06T18:20:52.905Z,96197
2017-10-06T18:23:21.653Z,96198
2017-10-06T18:25:50.371Z,96204
2017-10-06T18:28:25.329Z,96214
2017-10-06T18:30:54.022Z,96219
2017-10-06T18:33:23.482Z,96214
2017-10-06T18:35:52.205Z,96221
2017-10-06T18:38:27.036Z,96212
2017-10-06T18:41:02.061Z,96213
2017-10-06T18:43:30.766Z,96219
2017-10-06T18:46:02.526Z,96217
2017-10-06T18:48:39.488Z,96227
2017-10-06T18:51:08.212Z,96221
2017-10-06T18:53:36.924Z,96220
2017-10-06T18:56:11.977Z,96232
2017-10-06T18:58:40.675Z,96221
2017-10-06T19:01:22.412Z,96228
2017-10-06T19:03:53.138Z,96217
2017-10-06T19:06:29.569Z,96217
2017-10-06T19:09:00.313Z,96227
2017-10-06T19:11:29.074Z,96259
2017-10-06T19:14:04.766Z,96240
2017-10-06T19:16:39.709Z,96241
2017-10-06T19:19:09.490Z,96248
2017-10-06T19:21:44.743Z,96242
2017-10-06T19:24:13.437Z,96245
2017-10-06T19:26:42.169Z,96250
2017-10-06T19:29:17.152Z,96246
2017-10-06T19:31:47.837Z,96256
2017-10-06T19:34:22.737Z,96255
2017-10-06T19:36:51.545Z,96257
2017-10-06T19:39:25.864Z,96259
2017-10-06T19:41:54.629Z,96256
2017-10-06T19:44:24.985Z,96254
2017-10-06T19:46:53.720Z,96265
2017-10-06T19:49:23.427Z,96262
2017-10-06T19:51:58.443Z,96258
2017-10-06T19:54:34.498Z,96269
2017-10-06T19:57:06.129Z,96275
2017-10-06T19:59:35.783Z,96284
2017-10-06T20:02:04.660Z,96281
2017-10-06T20:04:39.804Z,96278
2017-10-06T20:07:08.596Z,96294
2017-10-06T20:09:43.625Z,96289
2017-10-06T20:12:12.528Z,96292
2017-10-06T20:14:41.235Z,96296
2017-10-06T20:17:16.358Z,96299
2017-10-06T20:19:45.100Z,96294
2017-10-06T20:22:21.900Z,96305
2017-10-06T20:24:57.101Z,96303
2017-10-06T20:27:32.105Z,96297
2017-10-06T20:30:01.021Z,96296
2017-10-06T20:32:30.516Z,96297
2017-10-06T20:34:59.459Z,96300
2017-10-06T20:37:35.375Z,96300
2017-10-06T20:40:10.352Z,96305
2017-10-06T20:42:39.196Z,96298
2017-10-06T20:45:11.060Z,96302
2017-10-06T20:47:40.943Z,96308
2017-10-06T20:50:10.039Z,96308
2017-10-06T20:52:40.035Z,96306
2017-10-06T20:55:10.085Z,96314
2017-10-06T20:57:45.355Z,96312
2017-10-06T21:00:16.537Z,96317
2017-10-06T21:02:53.440Z,96320
2017-10-06T21:05:22.168Z,96318
2017-10-06T21:07:50.865Z,96331
2017-10-06T21:10:22.986Z,96327
2017-10-06T21:12:54.719Z,96342
2017-10-06T21:15:23.520Z,96333
2017-10-06T21:17:52.344Z,96341
2017-10-06T21:20:21.106Z,96344
2017-10-06T21:22:49.919Z,96338
2017-10-06T21:25:18.720Z,96335
2017-10-06T21:27:47.459Z,96335
2017-10-06T21:30:23.925Z,96325
2017-10-06T21:32:53.519Z,96322
2017-10-06T21:35:25.381Z,96323
2017-10-06T21:38:00.813Z,96335
2017-10-06T21:40:29.834Z,96325
2017-10-06T21:42:59.076Z,96339
2017-10-06T21:45:34.013Z,96342
2017-10-06T21:48:03.252Z,96344
2017-10-06T21:50:32.526Z,96346
2017-10-06T21:53:01.544Z,96373
2017-10-06T21:55:37.709Z,96351
2017-10-06T21:58:07.144Z,96361
2017-10-06T22:00:36.215Z,96353
2017-10-06T22:03:11.685Z,96359
2017-10-06T22:05:40.421Z,96360
2017-10-06T22:08:10.283Z,96362
2017-10-06T22:10:39.427Z,96354
2017-10-06T22:13:08.293Z,96358
2017-10-06T22:15:43.228Z,96355
2017-10-06T22:18:11.941Z,96276
2017-10-06T22:20:40.632Z,96354
2017-10-06T22:23:09.849Z,96359
2017-10-06T22:25:39.643Z,96362
2017-10-06T22:28:08.680Z,96364
2017-10-06T22:30:40.292Z,96371
2017-10-06T22:33:09.059Z,96372
2017-10-06T22:35:39.964Z,96383
2017-10-06T22:38:10.397Z,96372
2017-10-06T22:40:45.460Z,96377
2017-10-06T22:43:16.200Z,96376
2017-10-06T22:45:46.516Z,96372
2017-10-06T22:48:15.184Z,96379
2017-10-06T22:50:43.872Z,96370
2017-10-06T22:53:13.547Z,96372
2017-10-06T22:55:42.572Z,96368
2017-10-06T22:58:11.271Z,96368
2017-10-06T23:00:40.144Z,96379
2017-10-06T23:03:08.912Z,96373
2017-10-06T23:05:37.612Z,96372
2017-10-06T23:08:06.527Z,96368
2017-10-06T23:10:42.823Z,96374
2017-10-06T23:13:11.530Z,96374
2017-10-06T23:15:40.338Z,96379
2017-10-06T23:18:09.135Z,96375
2017-10-06T23:20:37.875Z,96368
2017-10-06T23:23:12.772Z,96374
2017-10-06T23:25:42.735Z,96379
2017-10-06T23:28:12.111Z,96385
2017-10-06T23:30:59.869Z,96380
2017-10-06T23:33:29.840Z,96386
2017-10-06T23:35:59.175Z,96375
2017-10-06T23:38:34.613Z,96384
2017-10-06T23:41:03.653Z,96387
2017-10-06T23:43:33.801Z,96392
2017-10-06T23:46:09.303Z,96406
2017-10-06T23:48:44.576Z,96399
2017-10-06T23:51:13.444Z,96405
2017-10-06T23:53:43.201Z,96402
2017-10-06T23:56:12.836Z,96399
2017-10-06T23:58:41.625Z,96405
